Terminal Aerodrome Forecast
Issued by NWS

Home | Current Version | Previous Version | Text Only | Print | Product List | Glossary On
Versions: 1 2 3 4 5 6 7 8 9 10 11 12 13 14 15
000
FTUS43 KDVN 311722
TAFBRL
TAF
KBRL 311722Z 3118/0118 16007KT 6SM HZ SCT050
     FM010000 17004KT 6SM HZ FEW050
     FM010700 18005KT 4SM BR SKC
     FM011200 21006KT 4SM BR SKC=

USA.gov is the U.S. government's official web portal to all federal, state and local government web resources and services.